Time;durP1;ratioP1;P1;durP2;ratioP2;P2;SDS_P1;SDS_P2;PMS_P1;PMS_P2;Temp;Humidity;BMP_temperature;BMP_pressure;BME280_temperature;BME280_humidity;BME280_pressure;Samples;Min_cycle;Max_cycle;Signal;HPM_P1;HPM_P2
2022/08/09 00:00:08;;;;;;;3.30;2.00;;;23.10;52.20;;;;;;2003997;29;20030;-82
2022/08/09 00:01:12;;;;;;;2.95;2.20;;;23.10;52.20;;;;;;2003819;29;20030;-82
2022/08/09 00:02:12;;;;;;;4.77;2.30;;;23.10;52.40;;;;;;2004284;29;20041;-82
2022/08/09 00:03:13;;;;;;;6.30;2.23;;;23.10;52.30;;;;;;2011742;29;20030;-82
2022/08/09 00:04:16;;;;;;;3.90;2.30;;;23.10;52.30;;;;;;2011501;29;20041;-81
2022/08/09 00:05:18;;;;;;;2.92;2.25;;;23.10;52.30;;;;;;2004284;29;20465;-82
2022/08/09 00:06:19;;;;;;;2.97;2.40;;;23.10;52.50;;;;;;2007929;29;20038;-82
2022/08/09 00:07:20;;;;;;;5.20;2.42;;;23.20;52.50;;;;;;2026554;29;20046;-82
2022/08/09 00:08:20;;;;;;;3.73;2.53;;;23.20;52.60;;;;;;2017591;29;20105;-81
2022/08/09 00:09:21;;;;;;;3.23;2.13;;;23.20;52.30;;;;;;2011654;29;20032;-81
2022/08/09 00:10:22;;;;;;;3.30;2.20;;;23.10;52.50;;;;;;2027010;29;20024;-81
2022/08/09 00:11:23;;;;;;;6.07;2.30;;;23.10;52.40;;;;;;2026753;29;20025;-81
2022/08/09 00:12:24;;;;;;;3.97;2.10;;;23.10;52.50;;;;;;2011436;29;20026;-81
2022/08/09 00:13:25;;;;;;;6.20;2.60;;;23.10;52.60;;;;;;2011216;29;20077;-81
2022/08/09 00:14:26;;;;;;;5.53;2.10;;;23.10;52.60;;;;;;2002486;29;20030;-81
2022/08/09 00:15:26;;;;;;;6.10;2.10;;;23.10;52.70;;;;;;2011246;29;20099;-81
2022/08/09 00:16:27;;;;;;;4.07;2.33;;;23.10;52.90;;;;;;2019078;29;20380;-81
2022/08/09 00:17:28;;;;;;;2.83;2.00;;;23.10;52.70;;;;;;2025992;29;20060;-82
2022/08/09 00:18:33;;;;;;;4.10;2.00;;;23.10;52.90;;;;;;2026167;29;20116;-82
2022/08/09 00:19:34;;;;;;;4.72;2.25;;;23.00;52.80;;;;;;2018435;29;20045;-82
2022/08/09 00:20:34;;;;;;;4.63;2.30;;;22.90;52.90;;;;;;2013789;29;20033;-82
2022/08/09 00:21:39;;;;;;;5.00;2.47;;;22.90;53.10;;;;;;2002609;29;20422;-82
2022/08/09 00:22:39;;;;;;;5.20;2.50;;;22.90;53.20;;;;;;2004389;29;20038;-82
2022/08/09 00:23:40;;;;;;;3.53;1.77;;;22.90;53.20;;;;;;2003388;29;20041;-82
2022/08/09 00:24:41;;;;;;;3.00;2.37;;;22.90;53.40;;;;;;2011318;29;20026;-82
2022/08/09 00:25:42;;;;;;;3.70;2.20;;;22.90;53.30;;;;;;2010976;29;20044;-82
2022/08/09 00:26:42;;;;;;;2.77;2.10;;;22.80;53.30;;;;;;2011228;29;20029;-81
2022/08/09 00:27:43;;;;;;;5.67;2.00;;;22.80;53.50;;;;;;2002429;29;20523;-81
2022/08/09 00:28:44;;;;;;;6.73;2.37;;;22.80;53.30;;;;;;2000584;29;20095;-81
2022/08/09 00:29:45;;;;;;;3.60;2.30;;;22.80;53.70;;;;;;2011368;29;20037;-81
2022/08/09 00:30:46;;;;;;;2.77;2.07;;;22.80;53.70;;;;;;2011650;29;20030;-81
2022/08/09 00:31:46;;;;;;;5.93;2.33;;;22.80;53.60;;;;;;2011422;29;20037;-81
2022/08/09 00:32:47;;;;;;;4.17;1.73;;;22.80;53.70;;;;;;2019083;29;20447;-81
2022/08/09 00:33:49;;;;;;;8.27;2.57;;;22.80;53.90;;;;;;2021089;29;20349;-81
2022/08/09 00:34:50;;;;;;;3.08;1.88;;;22.80;53.60;;;;;;2018260;29;20036;-82
2022/08/09 00:35:51;;;;;;;2.80;2.07;;;22.80;53.70;;;;;;2018929;29;20065;-81
2022/08/09 00:36:52;;;;;;;2.78;2.17;;;22.70;53.70;;;;;;2026732;29;20194;-81
2022/08/09 00:37:53;;;;;;;4.33;2.10;;;22.70;53.80;;;;;;2027050;29;20044;-81
2022/08/09 00:38:54;;;;;;;4.93;2.10;;;22.80;53.80;;;;;;2011463;29;20041;-81
2022/08/09 00:39:54;;;;;;;3.97;2.13;;;22.80;53.80;;;;;;2003878;29;20034;-80
2022/08/09 00:40:55;;;;;;;4.37;2.43;;;22.70;53.70;;;;;;2002995;29;20030;-81
2022/08/09 00:41:56;;;;;;;6.73;2.20;;;22.70;53.80;;;;;;2011438;29;20109;-81
2022/08/09 00:42:57;;;;;;;4.13;1.90;;;22.70;53.90;;;;;;2011446;29;20044;-81
2022/08/09 00:43:58;;;;;;;3.33;1.87;;;22.70;53.90;;;;;;2018884;29;20029;-82
2022/08/09 00:44:58;;;;;;;4.63;2.30;;;22.80;54.00;;;;;;2018779;29;20056;-82
2022/08/09 00:45:59;;;;;;;3.33;2.03;;;22.70;54.00;;;;;;2018601;29;20512;-81
2022/08/09 00:47:00;;;;;;;2.90;2.27;;;22.70;53.90;;;;;;2011085;29;20037;-81
2022/08/09 00:48:03;;;;;;;3.10;1.83;;;22.70;54.00;;;;;;2009953;29;20025;-82
2022/08/09 00:49:03;;;;;;;2.78;1.85;;;22.60;54.20;;;;;;2026081;29;20033;-81
2022/08/09 00:50:05;;;;;;;2.97;1.83;;;22.60;54.20;;;;;;2010915;29;20366;-81
2022/08/09 00:51:06;;;;;;;2.40;1.80;;;22.60;54.20;;;;;;2003438;29;20034;-82
2022/08/09 00:52:07;;;;;;;3.88;1.90;;;22.60;54.20;;;;;;2018656;29;20069;-81
2022/08/09 00:53:09;;;;;;;3.50;1.87;;;22.70;54.30;;;;;;2018720;29;20033;-81
2022/08/09 00:54:09;;;;;;;3.60;1.83;;;22.70;54.30;;;;;;2018069;29;20035;-81
2022/08/09 00:55:10;;;;;;;2.97;2.00;;;22.70;54.20;;;;;;2011114;29;20045;-81
2022/08/09 00:56:12;;;;;;;2.30;1.73;;;22.60;54.20;;;;;;2010905;29;20049;-81
2022/08/09 00:57:13;;;;;;;;;;;22.60;54.70;;;;;;2019136;29;20362;-81
2022/08/09 00:58:13;;;;;;;5.45;1.67;;;22.60;54.20;;;;;;2003174;29;19945;-81
2022/08/09 00:59:14;;;;;;;3.77;1.70;;;22.60;54.20;;;;;;1995946;29;20034;-82
2022/08/09 01:00:16;;;;;;;6.97;2.10;;;22.60;54.50;;;;;;1996130;29;20055;-82
2022/08/09 01:01:22;;;;;;;3.40;1.77;;;22.60;54.30;;;;;;2014244;29;20071;-81
2022/08/09 01:02:29;;;;;;;2.88;1.63;;;22.50;54.40;;;;;;2018861;29;20037;-81
2022/08/09 01:03:47;;;;;;;4.47;1.98;;;22.50;54.40;;;;;;2012463;29;20049;-81
2022/08/09 01:04:59;;;;;;;5.18;1.85;;;22.50;54.50;;;;;;2022154;29;20571;-80
2022/08/09 01:06:11;;;;;;;2.42;1.70;;;22.50;54.60;;;;;;2019133;29;20335;-81
2022/08/09 01:07:21;;;;;;;3.70;2.00;;;22.50;54.50;;;;;;2012863;29;20464;-81
2022/08/09 01:09:00;;;;;;;2.78;1.83;;;22.40;54.60;;;;;;2019072;29;20112;-81
2022/08/09 01:10:35;;;;;;;3.33;1.75;;;22.40;54.70;;;;;;2019061;29;20029;-81
2022/08/09 01:11:45;;;;;;;4.05;1.90;;;22.40;54.70;;;;;;2008087;29;20066;-81
2022/08/09 01:13:14;;;;;;;3.47;1.92;;;22.30;54.60;;;;;;2004940;29;20341;-81
2022/08/09 01:14:38;;;;;;;2.67;1.58;;;22.30;54.80;;;;;;2013782;29;20268;-81
2022/08/09 01:15:44;;;;;;;3.45;1.88;;;22.40;54.90;;;;;;2013808;29;20268;-81
2022/08/09 01:16:48;;;;;;;6.75;1.88;;;22.40;54.70;;;;;;2009697;29;20288;-81
2022/08/09 01:18:00;;;;;;;2.78;1.75;;;22.30;54.70;;;;;;2004318;29;20268;-82
2022/08/09 01:19:13;;;;;;;2.65;1.63;;;22.30;54.70;;;;;;2004511;29;20850;-82
2022/08/09 01:20:28;;;;;;;4.53;1.83;;;22.30;54.80;;;;;;2004737;29;20385;-82
2022/08/09 01:21:43;;;;;;;3.80;1.40;;;22.30;54.90;;;;;;2005782;29;20313;-82
2022/08/09 01:23:21;;;;;;;5.53;2.25;;;22.20;54.90;;;;;;2011107;29;20253;-82
2022/08/09 01:24:38;;;;;;;4.38;1.70;;;22.20;55.00;;;;;;2010717;29;20257;-82
2022/08/09 01:25:59;;;;;;;3.00;1.60;;;22.20;55.00;;;;;;2010068;29;20300;-82
2022/08/09 01:27:16;;;;;;;4.82;1.70;;;22.20;55.10;;;;;;2013491;29;20260;-82
2022/08/09 01:28:20;;;;;;;4.05;1.92;;;22.20;54.90;;;;;;2011856;29;20265;-81
2022/08/09 01:29:36;;;;;;;3.58;1.70;;;22.20;54.90;;;;;;2003606;29;20257;-82
2022/08/09 01:30:39;;;;;;;4.47;1.73;;;22.20;55.00;;;;;;2006146;29;20343;-81
2022/08/09 01:31:43;;;;;;;7.97;1.98;;;22.20;55.00;;;;;;2005293;29;20273;-81
2022/08/09 01:32:46;;;;;;;2.95;1.80;;;22.20;55.10;;;;;;2026577;29;20259;-81
2022/08/09 01:33:48;;;;;;;7.20;2.00;;;22.20;55.10;;;;;;2012845;29;20256;-81
2022/08/09 01:34:53;;;;;;;4.47;2.30;;;22.10;55.00;;;;;;2011999;29;20347;-81
2022/08/09 01:36:10;;;;;;;3.30;1.85;;;22.10;55.10;;;;;;2012912;29;20257;-81
2022/08/09 01:37:13;;;;;;;3.42;1.70;;;22.10;55.10;;;;;;2016341;29;20589;-81
2022/08/09 01:38:19;;;;;;;4.45;2.45;;;22.10;55.00;;;;;;2020330;29;20260;-81
2022/08/09 01:39:21;;;;;;;3.97;1.67;;;22.10;55.00;;;;;;2017874;29;20607;-81
2022/08/09 01:40:23;;;;;;;;;;;22.10;55.00;;;;;;2012998;29;20315;-80
2022/08/09 01:41:28;;;;;;;3.58;1.75;;;22.10;55.00;;;;;;2011586;29;19939;-81
2022/08/09 01:42:31;;;;;;;5.00;1.92;;;22.10;55.00;;;;;;2017281;29;20029;-81
2022/08/09 01:43:35;;;;;;;3.63;1.98;;;22.10;55.10;;;;;;2012512;29;20299;-81
2022/08/09 01:44:37;;;;;;;8.27;2.00;;;22.10;55.20;;;;;;2004939;29;20257;-81
2022/08/09 01:45:40;;;;;;;2.67;1.80;;;22.10;55.10;;;;;;2016380;29;20268;-81
2022/08/09 01:46:44;;;;;;;2.70;1.77;;;22.10;55.00;;;;;;2012883;29;20029;-81
2022/08/09 01:47:46;;;;;;;6.47;2.00;;;22.20;55.00;;;;;;2003470;29;20277;-81
2022/08/09 01:48:49;;;;;;;2.92;2.20;;;22.10;55.10;;;;;;2012105;29;20264;-81
2022/08/09 01:49:50;;;;;;;3.53;1.80;;;22.10;55.00;;;;;;2019872;29;20711;-81
2022/08/09 01:50:53;;;;;;;2.78;1.80;;;22.10;55.10;;;;;;2019756;29;20600;-80
2022/08/09 01:51:57;;;;;;;2.70;1.90;;;22.10;55.10;;;;;;2012144;29;20537;-81
2022/08/09 01:53:00;;;;;;;6.57;2.00;;;22.10;55.30;;;;;;2012711;29;20292;-81
2022/08/09 01:54:02;;;;;;;3.50;1.80;;;22.00;55.20;;;;;;2015667;29;20339;-81
2022/08/09 01:55:05;;;;;;;3.08;1.60;;;22.00;55.30;;;;;;2005764;29;20298;-81
2022/08/09 01:56:08;;;;;;;5.43;1.77;;;22.10;55.30;;;;;;2004674;29;20364;-81
2022/08/09 01:57:16;;;;;;;6.38;1.83;;;22.10;55.10;;;;;;2012388;29;20724;-81
2022/08/09 01:58:17;;;;;;;3.25;1.80;;;22.10;55.10;;;;;;2012842;29;20660;-82
2022/08/09 01:59:20;;;;;;;5.07;2.20;;;22.10;55.00;;;;;;2019851;29;20284;-82
2022/08/09 02:00:21;;;;;;;4.22;1.50;;;22.10;55.10;;;;;;2019710;29;20044;-82
2022/08/09 02:01:24;;;;;;;4.32;2.00;;;22.10;55.10;;;;;;2011096;29;20312;-81
2022/08/09 02:02:29;;;;;;;3.88;1.90;;;22.10;55.30;;;;;;2020076;29;20103;-81
2022/08/09 02:03:33;;;;;;;4.18;1.90;;;22.00;55.20;;;;;;2019053;29;20755;-81
2022/08/09 02:04:35;;;;;;;3.85;1.80;;;22.00;55.20;;;;;;2005307;29;20281;-81
2022/08/09 02:05:37;;;;;;;2.72;1.80;;;22.10;55.10;;;;;;2012267;29;20296;-81
2022/08/09 02:08:05;;;;;;;3.42;1.90;;;22.00;55.10;;;;;;2013612;29;20444;-82
2022/08/09 02:09:09;;;;;;;4.15;1.80;;;22.00;55.10;;;;;;2012533;29;20034;-81
2022/08/09 02:10:14;;;;;;;5.30;1.80;;;21.90;55.20;;;;;;2012294;29;20673;-81
2022/08/09 02:11:15;;;;;;;3.10;1.60;;;21.90;55.40;;;;;;2012694;29;20750;-81
2022/08/09 02:12:19;;;;;;;4.80;1.80;;;21.90;55.40;;;;;;2019623;29;20425;-81
2022/08/09 02:13:23;;;;;;;6.43;1.70;;;21.80;55.30;;;;;;2012128;29;20034;-81
2022/08/09 02:14:26;;;;;;;5.88;1.70;;;21.90;55.40;;;;;;2018683;29;20311;-82
2022/08/09 02:15:30;;;;;;;2.58;1.63;;;21.90;55.50;;;;;;2004562;29;20273;-82
2022/08/09 02:16:34;;;;;;;4.43;1.73;;;21.80;55.40;;;;;;2005150;29;20277;-82
2022/08/09 02:17:37;;;;;;;3.92;1.88;;;21.90;55.40;;;;;;2012487;29;20280;-82
2022/08/09 02:18:40;;;;;;;2.40;1.60;;;21.90;55.40;;;;;;2012161;29;20332;-82
2022/08/09 02:19:41;;;;;;;3.45;1.70;;;21.90;55.50;;;;;;2004342;29;20380;-82
2022/08/09 02:20:45;;;;;;;3.72;1.90;;;21.90;55.30;;;;;;2011284;29;20265;-82
2022/08/09 02:21:49;;;;;;;3.05;1.80;;;21.90;55.30;;;;;;2019713;29;20035;-82
2022/08/09 02:23:03;;;;;;;3.70;1.98;;;21.80;55.40;;;;;;2019656;29;20272;-82
2022/08/09 02:24:07;;;;;;;3.88;1.48;;;21.70;55.40;;;;;;2014983;29;20283;-82
2022/08/09 02:25:17;;;;;;;5.18;1.45;;;21.80;55.60;;;;;;2013116;29;20271;-82
2022/08/09 02:26:19;;;;;;;3.95;1.60;;;21.80;55.60;;;;;;2013056;29;20305;-82
2022/08/09 02:27:25;;;;;;;3.67;1.85;;;21.80;55.70;;;;;;2011411;29;20288;-82
2022/08/09 02:28:45;;;;;;;2.95;1.70;;;21.70;55.50;;;;;;2012435;29;20282;-82
2022/08/09 02:29:50;;;;;;;3.63;1.33;;;21.80;55.50;;;;;;2019604;29;20343;-82
2022/08/09 02:30:59;;;;;;;4.93;1.55;;;21.70;55.50;;;;;;2011550;29;20368;-82
2022/08/09 02:32:02;;;;;;;5.28;2.08;;;21.70;55.70;;;;;;2013793;29;20286;-82
2022/08/09 02:33:04;;;;;;;4.15;1.38;;;21.70;55.70;;;;;;2027012;29;20251;-82
2022/08/09 02:34:13;;;;;;;7.35;1.98;;;21.70;55.60;;;;;;2018962;29;20267;-82
2022/08/09 02:35:20;;;;;;;3.63;1.65;;;21.70;55.60;;;;;;2020115;29;20025;-82
2022/08/09 02:36:31;;;;;;;3.53;1.80;;;21.70;55.60;;;;;;2019598;29;20256;-82
2022/08/09 02:37:35;;;;;;;3.88;1.70;;;21.70;55.60;;;;;;2014301;29;20284;-81
2022/08/09 02:38:51;;;;;;;3.45;1.60;;;21.70;55.70;;;;;;2004349;29;20361;-81
2022/08/09 02:40:00;;;;;;;4.32;1.80;;;21.60;55.90;;;;;;2008131;29;20312;-81
2022/08/09 02:41:09;;;;;;;3.38;1.63;;;21.60;55.90;;;;;;2011721;29;20333;-82
2022/08/09 02:42:15;;;;;;;6.18;1.75;;;21.60;55.90;;;;;;2011847;29;20315;-81
2022/08/09 02:43:19;;;;;;;3.60;1.67;;;21.60;55.90;;;;;;2011746;29;20276;-82
2022/08/09 02:44:24;;;;;;;3.67;1.58;;;21.60;56.00;;;;;;2019645;29;20276;-81
2022/08/09 02:45:35;;;;;;;2.47;1.60;;;21.60;55.90;;;;;;2026465;29;20287;-82
2022/08/09 02:46:38;;;;;;;3.28;1.70;;;21.50;56.00;;;;;;2025916;29;20275;-82
2022/08/09 02:47:41;;;;;;;2.78;1.90;;;21.50;56.00;;;;;;2025674;29;20267;-81
2022/08/09 02:48:44;;;;;;;3.75;1.60;;;21.50;56.10;;;;;;2004483;29;20281;-81
2022/08/09 02:49:53;;;;;;;4.32;1.60;;;21.50;56.10;;;;;;2004325;29;20289;-81
2022/08/09 02:50:55;;;;;;;2.60;1.60;;;21.50;56.00;;;;;;2006080;29;20333;-81
2022/08/09 02:51:58;;;;;;;4.82;1.90;;;21.60;56.10;;;;;;2004207;29;20277;-81
2022/08/09 02:53:03;;;;;;;6.82;1.70;;;21.50;56.00;;;;;;1996648;29;20358;-81
2022/08/09 02:54:06;;;;;;;2.08;1.50;;;21.60;56.00;;;;;;2004902;29;20282;-81
2022/08/09 02:55:09;;;;;;;2.75;1.60;;;21.50;56.00;;;;;;2004239;29;20340;-81
2022/08/09 02:56:11;;;;;;;4.30;1.73;;;21.60;56.20;;;;;;2007863;29;20314;-82
2022/08/09 02:57:14;;;;;;;3.65;1.67;;;21.60;56.00;;;;;;2011798;29;20645;-82
2022/08/09 02:58:17;;;;;;;4.47;2.00;;;21.60;56.00;;;;;;2012004;29;20272;-82
2022/08/09 02:59:19;;;;;;;4.05;1.65;;;21.60;55.90;;;;;;2011713;29;20285;-82
2022/08/09 03:00:22;;;;;;;4.00;1.60;;;21.60;55.90;;;;;;2011967;29;20297;-82
2022/08/09 03:01:24;;;;;;;5.05;1.67;;;21.60;55.90;;;;;;2018742;29;20256;-81
2022/08/09 03:02:25;;;;;;;2.63;1.60;;;21.60;55.90;;;;;;2011763;29;20316;-82
2022/08/09 03:03:27;;;;;;;5.45;2.00;;;21.60;55.90;;;;;;2011631;29;20033;-82
2022/08/09 03:04:30;;;;;;;2.92;1.80;;;21.60;55.90;;;;;;2018992;29;20115;-82
2022/08/09 03:05:32;;;;;;;3.47;1.70;;;21.60;56.00;;;;;;2011946;29;20352;-82
2022/08/09 03:06:34;;;;;;;8.77;2.45;;;21.50;56.00;;;;;;2011688;29;20324;-81
2022/08/09 03:07:35;;;;;;;3.47;1.83;;;21.50;56.10;;;;;;2010699;29;20037;-81
2022/08/09 03:08:38;;;;;;;4.85;1.80;;;21.60;56.20;;;;;;2019435;29;20346;-81
2022/08/09 03:09:41;;;;;;;4.40;2.03;;;21.50;56.10;;;;;;2026850;29;20467;-82
2022/08/09 03:10:44;;;;;;;2.95;2.28;;;21.60;56.00;;;;;;2011497;29;20748;-81
2022/08/09 03:11:46;;;;;;;2.50;1.73;;;21.60;56.10;;;;;;2003922;29;20274;-81
2022/08/09 03:12:48;;;;;;;5.75;2.15;;;21.60;56.00;;;;;;2004238;29;20265;-81
2022/08/09 03:13:50;;;;;;;4.60;1.88;;;21.60;56.00;;;;;;2011562;29;20261;-81
2022/08/09 03:14:52;;;;;;;4.57;2.00;;;21.60;56.00;;;;;;2006226;29;20325;-81
2022/08/09 03:15:55;;;;;;;5.90;1.83;;;21.60;56.00;;;;;;2003992;29;20284;-82
2022/08/09 03:16:57;;;;;;;3.38;1.95;;;21.60;55.90;;;;;;2004139;29;20053;-82
2022/08/09 03:18:00;;;;;;;2.20;1.70;;;21.60;56.00;;;;;;2011845;29;20283;-82
2022/08/09 03:19:01;;;;;;;;;;;21.60;56.00;;;;;;2018449;29;20314;-82
2022/08/09 03:20:04;;;;;;;4.15;1.80;;;21.60;56.00;;;;;;2011336;29;19916;-82
2022/08/09 03:21:06;;;;;;;4.53;1.90;;;21.60;56.00;;;;;;2010818;29;20265;-82
2022/08/09 03:22:09;;;;;;;2.92;1.90;;;21.60;56.00;;;;;;2011644;29;20386;-82
2022/08/09 03:23:13;;;;;;;5.90;2.40;;;21.50;56.10;;;;;;2011723;29;20256;-82
2022/08/09 03:24:14;;;;;;;4.07;2.38;;;21.50;56.70;;;;;;2004265;29;20262;-82
2022/08/09 03:25:15;;;;;;;3.90;2.00;;;21.50;56.10;;;;;;2008708;29;20724;-82
2022/08/09 03:26:18;;;;;;;2.83;2.10;;;21.50;56.10;;;;;;2011344;29;20034;-82
2022/08/09 03:27:20;;;;;;;4.00;2.45;;;21.50;56.10;;;;;;2004097;29;20041;-82
2022/08/09 03:28:21;;;;;;;;;;;21.50;56.10;;;;;;2014439;29;20303;-82
2022/08/09 03:29:23;;;;;;;5.20;1.90;;;21.50;56.10;;;;;;2011602;29;19916;-82
2022/08/09 03:30:25;;;;;;;9.82;2.28;;;21.50;56.10;;;;;;2019009;29;20272;-82
2022/08/09 03:31:26;;;;;;;;;;;21.60;56.00;;;;;;2019654;29;20029;-82
2022/08/09 03:32:29;;;;;;;3.28;2.22;;;21.60;56.00;;;;;;2011511;29;20340;-81
2022/08/09 03:33:31;;;;;;;5.05;2.42;;;21.50;56.00;;;;;;2004457;29;20086;-82
2022/08/09 03:34:32;;;;;;;2.92;2.03;;;21.50;56.10;;;;;;2018030;29;20371;-82
2022/08/09 03:35:33;;;;;;;5.33;2.40;;;21.50;56.00;;;;;;2011345;29;20034;-82
2022/08/09 03:36:35;;;;;;;3.83;2.60;;;21.50;56.00;;;;;;2003655;29;20672;-81
2022/08/09 03:37:39;;;;;;;5.60;2.50;;;21.50;56.00;;;;;;2019324;29;20107;-81
2022/08/09 03:38:41;;;;;;;3.67;2.55;;;21.50;56.00;;;;;;2026159;29;20274;-81
2022/08/09 03:39:44;;;;;;;5.07;2.55;;;21.40;55.90;;;;;;2019035;29;20316;-81
2022/08/09 03:40:44;;;;;;;5.03;2.30;;;21.40;56.10;;;;;;2017726;29;20270;-80
2022/08/09 03:41:45;;;;;;;5.00;2.40;;;21.40;56.10;;;;;;2026675;29;20263;-81
2022/08/09 03:42:46;;;;;;;5.17;2.77;;;21.40;56.00;;;;;;2011443;29;20061;-81
2022/08/09 03:43:47;;;;;;;3.23;1.97;;;21.50;56.10;;;;;;2011477;29;20101;-82
2022/08/09 03:44:47;;;;;;;6.27;2.47;;;21.50;56.10;;;;;;2026764;29;20063;-81
2022/08/09 03:45:48;;;;;;;10.43;2.50;;;21.50;56.00;;;;;;2011141;29;20105;-81
2022/08/09 03:46:49;;;;;;;3.80;2.20;;;21.50;56.00;;;;;;2011304;29;20041;-82
2022/08/09 03:47:50;;;;;;;5.15;2.60;;;21.50;56.10;;;;;;2018042;29;20033;-81
2022/08/09 03:48:56;;;;;;;4.00;2.03;;;21.40;56.10;;;;;;2018941;29;20187;-81
2022/08/09 03:49:59;;;;;;;6.38;2.10;;;21.40;56.10;;;;;;2019043;29;20452;-81
2022/08/09 03:51:01;;;;;;;2.47;1.88;;;21.50;56.10;;;;;;2018878;29;20268;-81
2022/08/09 03:52:04;;;;;;;2.78;1.90;;;21.40;56.10;;;;;;2018922;29;20272;-81
2022/08/09 03:53:08;;;;;;;5.03;2.28;;;21.40;56.10;;;;;;2018946;29;20758;-81
2022/08/09 03:54:10;;;;;;;5.72;2.30;;;21.40;56.10;;;;;;2017691;29;20278;-81
2022/08/09 03:55:12;;;;;;;5.10;2.13;;;21.40;56.20;;;;;;2019087;29;20256;-81
2022/08/09 03:56:12;;;;;;;;;;;21.40;56.30;;;;;;2011610;29;20113;-81
2022/08/09 03:57:14;;;;;;;3.78;2.35;;;21.40;56.30;;;;;;2003649;29;19912;-82
2022/08/09 03:58:16;;;;;;;3.72;2.20;;;21.40;56.30;;;;;;2018806;29;20068;-82
2022/08/09 03:59:17;;;;;;;6.38;2.42;;;21.40;56.30;;;;;;2011349;29;20041;-82
2022/08/09 04:00:18;;;;;;;3.77;2.10;;;21.40;56.30;;;;;;2003782;29;20061;-82
2022/08/09 04:01:19;;;;;;;3.25;2.10;;;21.40;56.30;;;;;;2006632;29;20260;-81
2022/08/09 04:02:21;;;;;;;4.75;2.30;;;21.30;56.20;;;;;;2011142;29;20026;-81
2022/08/09 04:03:22;;;;;;;;;;;21.30;56.20;;;;;;2010651;29;20025;-82
2022/08/09 04:04:24;;;;;;;3.80;2.28;;;21.30;56.90;;;;;;2005000;29;19912;-82
2022/08/09 04:05:25;;;;;;;5.70;2.10;;;21.30;56.40;;;;;;2011377;29;20025;-81
2022/08/09 04:06:26;;;;;;;5.22;2.10;;;21.30;56.50;;;;;;2007770;29;20324;-82
2022/08/09 04:07:28;;;;;;;3.90;2.13;;;21.20;56.40;;;;;;2018047;29;20093;-81
2022/08/09 04:08:29;;;;;;;6.53;2.05;;;21.20;56.50;;;;;;2018659;29;20110;-81
2022/08/09 04:09:30;;;;;;;5.87;2.33;;;21.20;56.50;;;;;;2011177;29;20375;-81
2022/08/09 04:10:31;;;;;;;3.57;2.50;;;21.10;56.60;;;;;;2018982;29;20112;-81
2022/08/09 04:12:04;;;;;;;4.53;2.13;;;21.10;56.60;;;;;;2011216;29;20108;-81
2022/08/09 04:13:08;;;;;;;4.55;2.50;;;21.10;56.80;;;;;;2006444;29;20034;-81
2022/08/09 04:14:10;;;;;;;4.15;1.80;;;21.10;56.80;;;;;;2003371;29;20140;-81
2022/08/09 04:15:15;;;;;;;3.78;2.10;;;21.10;56.80;;;;;;2011374;29;20265;-81
2022/08/09 04:16:16;;;;;;;3.92;2.25;;;21.10;56.90;;;;;;2019216;29;20731;-82
2022/08/09 04:17:17;;;;;;;6.33;2.17;;;21.00;56.90;;;;;;2026716;29;20272;-82
2022/08/09 04:18:18;;;;;;;5.53;2.50;;;21.00;56.80;;;;;;2018809;29;20033;-82
2022/08/09 04:19:19;;;;;;;5.35;2.08;;;21.00;56.90;;;;;;2018714;29;20444;-81
2022/08/09 04:20:20;;;;;;;5.33;2.27;;;21.00;56.90;;;;;;2018743;29;20048;-82
2022/08/09 04:21:21;;;;;;;4.40;2.20;;;21.00;56.90;;;;;;2010150;29;20615;-82
2022/08/09 04:22:22;;;;;;;8.17;2.30;;;21.00;56.90;;;;;;2011234;29;20057;-82
2022/08/09 04:23:23;;;;;;;6.87;2.27;;;21.00;57.00;;;;;;2011111;29;20125;-82
2022/08/09 04:24:26;;;;;;;7.20;2.83;;;21.00;56.90;;;;;;2018995;29;20035;-82
2022/08/09 04:25:28;;;;;;;4.45;2.55;;;21.00;56.90;;;;;;2003808;29;20041;-81
2022/08/09 04:26:28;;;;;;;3.65;2.50;;;21.00;56.80;;;;;;2011216;29;20280;-81
2022/08/09 04:27:29;;;;;;;4.33;2.10;;;21.00;56.80;;;;;;2010093;29;20128;-82
2022/08/09 04:28:30;;;;;;;4.03;2.17;;;21.00;56.90;;;;;;2018770;29;20119;-81
2022/08/09 04:29:31;;;;;;;4.87;2.83;;;21.00;57.00;;;;;;2026441;29;20263;-81
2022/08/09 04:30:31;;;;;;;4.50;2.63;;;21.00;57.00;;;;;;2010993;29;20482;-81
2022/08/09 04:31:32;;;;;;;12.63;2.60;;;21.00;56.90;;;;;;2012128;29;20153;-81
2022/08/09 04:32:33;;;;;;;5.87;2.10;;;21.00;57.00;;;;;;2011113;29;20162;-82
2022/08/09 04:33:35;;;;;;;5.27;2.40;;;20.90;57.10;;;;;;2003293;29;20085;-81
2022/08/09 04:34:35;;;;;;;4.82;2.40;;;20.90;57.10;;;;;;2017841;29;20029;-81
2022/08/09 04:35:38;;;;;;;4.47;2.40;;;20.80;57.30;;;;;;2018603;29;20136;-81
2022/08/09 04:36:39;;;;;;;4.43;2.50;;;20.80;57.30;;;;;;2011059;29;20038;-81
2022/08/09 04:37:40;;;;;;;4.97;2.38;;;20.80;57.40;;;;;;2011121;29;20411;-81
2022/08/09 04:38:41;;;;;;;9.32;2.88;;;20.80;57.40;;;;;;2014692;29;20029;-80
2022/08/09 04:39:42;;;;;;;5.73;2.63;;;20.80;57.40;;;;;;2011031;29;20369;-81
2022/08/09 04:40:48;;;;;;;4.73;2.60;;;20.80;57.30;;;;;;1996305;29;20434;-81
2022/08/09 04:41:49;;;;;;;4.53;2.42;;;20.80;57.30;;;;;;2011609;29;20479;-81
2022/08/09 04:42:50;;;;;;;5.70;2.60;;;20.80;57.30;;;;;;2011085;29;20279;-81
2022/08/09 04:43:52;;;;;;;5.47;2.77;;;20.80;57.40;;;;;;2010920;29;20409;-81
2022/08/09 04:44:52;;;;;;;6.43;2.45;;;20.80;57.50;;;;;;2011067;29;20038;-81
2022/08/09 04:45:53;;;;;;;3.33;2.30;;;20.80;57.50;;;;;;2010973;29;20081;-81
2022/08/09 04:46:54;;;;;;;4.57;2.73;;;20.80;57.40;;;;;;2017248;29;20060;-82
2022/08/09 04:47:58;;;;;;;5.38;2.60;;;20.80;57.40;;;;;;2002745;29;20030;-81
2022/08/09 04:48:59;;;;;;;4.47;2.63;;;20.80;57.40;;;;;;2001308;29;20030;-81
2022/08/09 04:50:00;;;;;;;7.50;2.77;;;20.80;57.40;;;;;;2011258;29;20272;-81
2022/08/09 04:51:00;;;;;;;7.50;2.80;;;20.80;57.40;;;;;;2010373;29;20060;-79
2022/08/09 04:52:03;;;;;;;4.10;2.37;;;20.80;57.40;;;;;;2003461;29;20462;-81
2022/08/09 04:53:06;;;;;;;6.28;2.20;;;20.80;57.50;;;;;;2011457;29;20034;-81
2022/08/09 04:54:07;;;;;;;6.10;2.67;;;20.80;57.50;;;;;;2010172;29;20264;-81
2022/08/09 04:55:08;;;;;;;6.13;2.87;;;20.80;57.50;;;;;;2019178;29;20264;-81
2022/08/09 04:56:09;;;;;;;6.30;2.75;;;20.90;57.40;;;;;;2014865;29;20444;-81
2022/08/09 04:57:10;;;;;;;5.43;3.23;;;20.90;57.40;;;;;;2019264;29;20041;-81
2022/08/09 04:58:11;;;;;;;4.32;2.80;;;20.80;57.40;;;;;;2023387;29;20032;-81
2022/08/09 04:59:12;;;;;;;3.87;2.93;;;20.80;57.50;;;;;;2010641;29;20082;-82
2022/08/09 05:00:13;;;;;;;6.93;2.97;;;20.80;57.50;;;;;;2011279;29;20068;-82
2022/08/09 05:01:14;;;;;;;4.53;2.33;;;20.80;57.40;;;;;;2002965;29;20182;-81
2022/08/09 05:02:15;;;;;;;5.43;2.80;;;20.80;57.50;;;;;;2019115;29;20044;-81
2022/08/09 05:03:15;;;;;;;5.50;2.50;;;20.80;57.60;;;;;;2011558;29;20112;-81
2022/08/09 05:04:16;;;;;;;4.80;3.00;;;20.80;57.60;;;;;;2011409;29;20025;-81
2022/08/09 05:05:17;;;;;;;5.03;2.67;;;20.70;57.60;;;;;;2019513;29;20033;-82
2022/08/09 05:06:18;;;;;;;5.03;2.90;;;20.80;57.70;;;;;;2020275;29;20120;-81
2022/08/09 05:07:19;;;;;;;6.95;2.80;;;20.70;57.70;;;;;;2020294;29;20109;-81
2022/08/09 05:08:19;;;;;;;3.43;2.80;;;20.80;57.70;;;;;;2019243;29;20040;-81
2022/08/09 05:09:20;;;;;;;4.17;2.27;;;20.70;57.60;;;;;;2020360;29;20037;-81
2022/08/09 05:10:21;;;;;;;4.90;2.80;;;20.70;57.60;;;;;;2012325;29;20056;-81
2022/08/09 05:11:22;;;;;;;3.63;2.53;;;20.70;57.70;;;;;;2004805;29;20129;-81
2022/08/09 05:12:23;;;;;;;6.53;2.83;;;20.70;57.70;;;;;;2012373;29;20132;-81
2022/08/09 05:13:23;;;;;;;5.70;2.83;;;20.70;57.70;;;;;;2020026;29;20101;-81
2022/08/09 05:14:24;;;;;;;5.70;3.17;;;20.70;57.80;;;;;;2018872;29;20033;-82
2022/08/09 05:15:27;;;;;;;5.30;2.70;;;20.70;57.70;;;;;;2020238;29;20548;-81
2022/08/09 05:16:27;;;;;;;6.22;2.60;;;20.70;57.80;;;;;;2019773;29;20123;-81
2022/08/09 05:17:28;;;;;;;6.73;2.50;;;20.70;57.80;;;;;;2012288;29;20276;-81
2022/08/09 05:18:30;;;;;;;6.67;2.27;;;20.70;57.80;;;;;;2009914;29;20033;-81
2022/08/09 05:19:31;;;;;;;5.88;2.58;;;20.70;57.70;;;;;;2004569;29;20050;-82
2022/08/09 05:20:32;;;;;;;5.87;2.17;;;20.70;57.80;;;;;;2012486;29;20363;-82
2022/08/09 05:21:33;;;;;;;4.10;2.60;;;20.70;57.80;;;;;;2019000;29;20029;-82
2022/08/09 05:22:34;;;;;;;4.37;2.30;;;20.70;57.90;;;;;;2012430;29;20033;-82
2022/08/09 05:23:35;;;;;;;6.30;2.92;;;20.70;57.90;;;;;;2004592;29;20031;-82
2022/08/09 05:24:35;;;;;;;5.27;2.60;;;20.70;57.90;;;;;;2020027;29;20448;-82
2022/08/09 05:25:36;;;;;;;6.80;2.73;;;20.70;57.80;;;;;;2020047;29;20029;-81
2022/08/09 05:26:37;;;;;;;5.27;2.63;;;20.60;57.80;;;;;;2017553;29;20079;-81
2022/08/09 05:27:38;;;;;;;4.63;2.93;;;20.60;58.00;;;;;;2011268;29;20029;-82
2022/08/09 05:28:39;;;;;;;3.73;2.70;;;20.60;58.10;;;;;;2004705;29;20030;-81
2022/08/09 05:29:39;;;;;;;3.73;2.40;;;20.60;58.00;;;;;;2004257;29;20158;-81
2022/08/09 05:30:40;;;;;;;4.10;2.40;;;20.60;58.00;;;;;;2019894;29;20028;-81
2022/08/09 05:31:41;;;;;;;3.92;2.55;;;20.60;58.10;;;;;;2010213;29;20088;-81